createdAt,value
2022-09-23T00:01:01.697Z,20.07
2022-09-23T00:03:30.354Z,20.05
2022-09-23T00:06:03.657Z,19.97
2022-09-23T00:08:31.092Z,20.01
2022-09-23T00:11:06.915Z,19.95
2022-09-23T00:13:39.138Z,19.90
2022-09-23T00:16:08.329Z,19.87
2022-09-23T00:18:35.395Z,19.84
2022-09-23T00:21:03.954Z,19.78
2022-09-23T00:23:31.293Z,19.76
2022-09-23T00:26:00.686Z,19.74
2022-09-23T00:28:29.815Z,19.81
2022-09-23T00:30:57.193Z,19.82
2022-09-23T00:33:24.356Z,19.81
2022-09-23T00:35:51.399Z,19.87
2022-09-23T00:38:18.455Z,19.88
2022-09-23T00:40:46.463Z,19.88
2022-09-23T00:43:14.555Z,19.89
2022-09-23T00:45:48.722Z,19.88
2022-09-23T00:48:19.577Z,19.91
2022-09-23T00:50:53.574Z,19.89
2022-09-23T00:53:25.975Z,19.88
2022-09-23T00:55:57.313Z,19.84
2022-09-23T00:58:28.224Z,19.78
2022-09-23T01:00:59.015Z,19.74
2022-09-23T01:03:26.674Z,19.70
2022-09-23T01:05:54.374Z,19.70
2022-09-23T01:08:24.293Z,19.65
2022-09-23T01:11:09.735Z,19.62
2022-09-23T01:13:52.151Z,19.65
2022-09-23T01:16:30.310Z,19.62
2022-09-23T01:19:10.833Z,19.65
2022-09-23T01:21:52.772Z,19.62
2022-09-23T01:24:58.110Z,19.65
2022-09-23T01:27:51.948Z,19.66
2022-09-23T01:30:45.819Z,19.67
2022-09-23T01:33:24.612Z,19.63
2022-09-23T01:36:08.909Z,19.63
2022-09-23T01:38:45.318Z,19.66
2022-09-23T01:41:27.632Z,19.66
2022-09-23T01:44:04.270Z,19.59
2022-09-23T01:46:40.471Z,19.59
2022-09-23T01:49:15.430Z,19.57
2022-09-23T01:51:48.369Z,19.57
2022-09-23T01:54:22.670Z,19.54
2022-09-23T01:56:58.130Z,19.54
2022-09-23T01:59:34.830Z,19.51
2022-09-23T02:02:10.817Z,19.49
2022-09-23T02:04:46.111Z,19.47
2022-09-23T02:07:20.825Z,19.41
2022-09-23T02:09:55.630Z,19.42
2022-09-23T02:12:27.851Z,19.41
2022-09-23T02:15:03.171Z,19.42
2022-09-23T02:17:39.290Z,19.40
2022-09-23T02:20:08.270Z,19.37
2022-09-23T02:22:44.531Z,19.40
2022-09-23T02:25:11.798Z,19.49
2022-09-23T02:27:47.557Z,19.46
2022-09-23T02:30:18.708Z,19.47
2022-09-23T02:32:57.069Z,19.51
2022-09-23T02:35:31.303Z,19.51
2022-09-23T02:38:14.208Z,19.44
2022-09-23T02:40:52.670Z,19.39
2022-09-23T02:43:25.867Z,19.42
2022-09-23T02:45:53.046Z,19.39
2022-09-23T02:48:28.089Z,19.37
2022-09-23T02:50:55.887Z,19.33
2022-09-23T02:53:24.268Z,19.34
2022-09-23T02:55:51.448Z,19.32
2022-09-23T02:58:18.668Z,19.36
2022-09-23T03:01:00.057Z,19.38
2022-09-23T03:03:40.767Z,19.32
2022-09-23T03:06:23.387Z,19.24
2022-09-23T03:09:00.849Z,19.95
2022-09-23T03:11:28.509Z,20.21
2022-09-23T03:14:12.449Z,20.43
2022-09-23T03:16:45.501Z,20.51
2022-09-23T03:19:26.369Z,20.67
2022-09-23T03:22:02.563Z,20.77
2022-09-23T03:24:33.568Z,20.91
2022-09-23T03:27:07.668Z,20.99
2022-09-23T03:29:36.158Z,21.09
2022-09-23T03:32:04.737Z,21.18
2022-09-23T03:34:37.170Z,21.23
2022-09-23T03:37:13.429Z,21.23
2022-09-23T03:39:44.768Z,21.22
2022-09-23T03:42:19.087Z,21.26
2022-09-23T03:44:47.948Z,21.24
2022-09-23T03:47:16.870Z,21.31
2022-09-23T03:49:47.708Z,21.24
2022-09-23T03:52:15.308Z,21.17
2022-09-23T03:54:42.767Z,21.12
2022-09-23T03:57:11.156Z,21.16
2022-09-23T03:59:38.449Z,21.14
2022-09-23T04:02:06.943Z,21.16
2022-09-23T04:04:36.348Z,21.15
2022-09-23T04:07:05.428Z,21.15
2022-09-23T04:09:32.619Z,21.17
2022-09-23T04:11:59.687Z,21.15
2022-09-23T04:14:27.387Z,21.15
2022-09-23T04:16:54.468Z,21.14
2022-09-23T04:19:21.655Z,21.10
2022-09-23T04:21:49.108Z,21.07
2022-09-23T04:24:17.959Z,20.99
2022-09-23T04:26:45.049Z,21.01
2022-09-23T04:29:12.208Z,20.93
2022-09-23T04:31:39.451Z,20.96
2022-09-23T04:34:06.589Z,20.95
2022-09-23T04:36:33.649Z,21.00
2022-09-23T04:39:01.973Z,20.98
2022-09-23T04:41:30.527Z,20.89
2022-09-23T04:43:57.888Z,20.95
2022-09-23T04:46:25.241Z,20.86
2022-09-23T04:48:52.378Z,20.83
2022-09-23T04:51:21.906Z,20.87
2022-09-23T04:53:51.348Z,20.87
2022-09-23T04:56:20.560Z,20.87
2022-09-23T04:58:50.351Z,20.90
2022-09-23T05:01:20.034Z,20.80
2022-09-23T05:03:47.521Z,20.84
2022-09-23T05:06:15.111Z,20.86
2022-09-23T05:08:47.267Z,20.87
2022-09-23T05:11:14.413Z,20.87
2022-09-23T05:13:41.489Z,20.90
2022-09-23T05:16:11.226Z,20.91
2022-09-23T05:18:39.768Z,20.92
2022-09-23T05:21:07.611Z,20.96
2022-09-23T05:23:34.769Z,20.93
2022-09-23T05:26:05.429Z,20.92
2022-09-23T05:28:33.608Z,20.95
2022-09-23T05:31:05.411Z,20.92
2022-09-23T05:33:35.709Z,20.85
2022-09-23T05:36:04.553Z,20.79
2022-09-23T05:38:32.190Z,20.75
2022-09-23T05:41:01.249Z,20.83
2022-09-23T05:43:28.491Z,20.73
2022-09-23T05:46:05.972Z,20.73
2022-09-23T05:48:37.728Z,20.74
2022-09-23T05:51:05.662Z,20.82
2022-09-23T05:53:32.760Z,20.83
2022-09-23T05:55:59.950Z,20.83
2022-09-23T05:58:27.125Z,20.88
2022-09-23T06:00:54.281Z,20.87
2022-09-23T06:03:21.579Z,20.89
2022-09-23T06:05:52.818Z,20.89
2022-09-23T06:08:20.197Z,20.85
2022-09-23T06:10:52.164Z,20.89
2022-09-23T06:13:22.110Z,21.03
2022-09-23T06:15:49.249Z,21.09
2022-09-23T06:18:16.388Z,21.13
2022-09-23T06:20:43.349Z,21.18
2022-09-23T06:23:11.819Z,21.25
2022-09-23T06:25:39.030Z,21.36
2022-09-23T06:28:06.209Z,21.39
2022-09-23T06:30:33.272Z,21.46
2022-09-23T06:33:00.388Z,21.53
2022-09-23T06:35:27.953Z,21.53
2022-09-23T06:37:56.231Z,22.03
2022-09-23T06:40:25.076Z,22.54
2022-09-23T06:42:57.829Z,22.89
2022-09-23T06:45:25.328Z,23.15
2022-09-23T06:47:54.448Z,23.27
2022-09-23T06:50:21.709Z,22.81
2022-09-23T06:52:51.489Z,22.69
2022-09-23T06:55:18.549Z,22.63
2022-09-23T06:57:47.010Z,22.63
2022-09-23T07:00:14.569Z,22.62
2022-09-23T07:02:41.926Z,22.46
2022-09-23T07:05:09.308Z,22.62
2022-09-23T07:07:37.289Z,22.67
2022-09-23T07:10:06.023Z,22.77
2022-09-23T07:12:33.429Z,22.72
2022-09-23T07:15:01.971Z,22.86
2022-09-23T07:17:29.091Z,22.96
2022-09-23T07:19:56.164Z,23.11
2022-09-23T07:22:24.070Z,23.30
2022-09-23T07:24:51.749Z,23.56
2022-09-23T07:27:18.872Z,24.05
2022-09-23T07:29:48.764Z,24.32
2022-09-23T07:32:17.770Z,24.70
2022-09-23T07:34:45.110Z,24.72
2022-09-23T07:37:12.169Z,24.71
2022-09-23T07:39:39.314Z,24.92
2022-09-23T07:42:06.791Z,25.12
2022-09-23T07:44:34.399Z,25.08
2022-09-23T07:47:02.371Z,25.10
2022-09-23T07:49:30.892Z,25.02
2022-09-23T07:51:57.951Z,24.84
2022-09-23T07:54:25.091Z,24.87
2022-09-23T07:56:52.172Z,24.81
2022-09-23T07:59:19.371Z,24.69
2022-09-23T08:01:49.540Z,24.90
2022-09-23T08:04:20.573Z,24.65
2022-09-23T08:06:51.889Z,25.08
2022-09-23T08:09:21.283Z,25.35
2022-09-23T08:11:48.811Z,25.51
2022-09-23T08:14:17.258Z,25.63
2022-09-23T08:16:45.690Z,25.94
2022-09-23T08:19:13.614Z,25.46
2022-09-23T08:21:41.272Z,25.19
2022-09-23T08:24:14.209Z,25.67
2022-09-23T08:26:41.346Z,25.72
2022-09-23T08:29:08.871Z,25.59
2022-09-23T08:31:36.113Z,25.77
2022-09-23T08:34:03.971Z,25.78
2022-09-23T08:36:31.711Z,25.90
2022-09-23T08:38:58.789Z,26.06
2022-09-23T08:41:39.890Z,26.22
2022-09-23T08:44:16.318Z,26.36
2022-09-23T08:46:51.071Z,26.67
2022-09-23T08:49:28.558Z,26.78
2022-09-23T08:52:02.311Z,26.72
2022-09-23T08:54:31.750Z,27.05
2022-09-23T08:57:05.092Z,27.20
2022-09-23T08:59:41.872Z,27.10
2022-09-23T09:02:18.728Z,26.44
2022-09-23T09:04:52.291Z,26.81
2022-09-23T09:07:36.336Z,26.45
2022-09-23T09:10:11.062Z,26.82
2022-09-23T09:12:44.517Z,26.51
2022-09-23T09:15:15.194Z,26.65
2022-09-23T09:17:51.198Z,26.26
2022-09-23T09:20:23.590Z,26.45
2022-09-23T09:22:55.150Z,26.78
2022-09-23T09:25:33.461Z,26.90
2022-09-23T09:28:04.994Z,27.06
2022-09-23T09:30:34.629Z,27.00
2022-09-23T09:33:06.510Z,26.96
2022-09-23T09:35:40.708Z,26.89
2022-09-23T09:38:08.731Z,26.48
2022-09-23T09:40:42.669Z,26.67
2022-09-23T09:43:17.590Z,26.81
2022-09-23T09:46:01.030Z,26.95
2022-09-23T09:48:38.558Z,27.17
2022-09-23T09:51:19.311Z,27.20
2022-09-23T09:53:46.331Z,27.35
2022-09-23T09:56:16.262Z,27.49
2022-09-23T09:58:50.633Z,27.56
2022-09-23T10:01:22.848Z,27.66
2022-09-23T10:03:55.563Z,27.56
2022-09-23T10:06:28.172Z,27.29
2022-09-23T10:09:17.109Z,27.10
2022-09-23T10:12:04.011Z,27.31
2022-09-23T10:14:32.530Z,27.34
2022-09-23T10:17:05.898Z,26.81
2022-09-23T10:19:36.430Z,26.96
2022-09-23T10:22:10.188Z,27.12
2022-09-23T10:24:37.283Z,27.28
2022-09-23T10:27:08.311Z,27.01
2022-09-23T10:29:40.870Z,26.90
2022-09-23T10:32:30.082Z,26.73
2022-09-23T10:35:01.891Z,27.01
2022-09-23T10:37:39.931Z,27.15
2022-09-23T10:40:18.792Z,26.98
2022-09-23T10:43:05.536Z,26.72
2022-09-23T10:45:41.203Z,26.50
2022-09-23T10:48:22.437Z,26.80
2022-09-23T10:50:52.767Z,27.09
2022-09-23T10:53:31.135Z,27.08
2022-09-23T10:56:22.797Z,27.32
2022-09-23T10:59:24.543Z,26.98
2022-09-23T11:02:06.196Z,27.40
2022-09-23T11:04:58.130Z,27.39
2022-09-23T11:07:38.631Z,27.32
2022-09-23T11:10:46.576Z,27.59
2022-09-23T11:13:29.688Z,27.52
2022-09-23T11:16:06.167Z,27.38
2022-09-23T11:19:06.100Z,27.11
2022-09-23T11:21:58.890Z,27.22
2022-09-23T11:24:57.075Z,26.60
2022-09-23T11:27:40.672Z,26.87
2022-09-23T11:30:10.794Z,26.99
2022-09-23T11:33:09.388Z,26.65
2022-09-23T11:35:45.974Z,26.70
2022-09-23T11:38:19.720Z,26.93
2022-09-23T11:40:52.223Z,26.89
2022-09-23T11:43:22.868Z,27.24
2022-09-23T11:45:57.547Z,27.35
2022-09-23T11:48:33.666Z,27.21
2022-09-23T11:51:09.838Z,26.67
2022-09-23T11:53:45.560Z,27.05
2022-09-23T11:56:32.725Z,26.91
2022-09-23T11:59:10.336Z,27.04
2022-09-23T12:01:45.801Z,27.25
2022-09-23T12:04:22.940Z,27.16
2022-09-23T12:07:00.290Z,27.49
2022-09-23T12:09:58.595Z,26.85
2022-09-23T12:12:35.449Z,26.68
2022-09-23T12:15:10.306Z,26.67
2022-09-23T12:17:59.624Z,27.11
2022-09-23T12:20:44.566Z,27.33
2022-09-23T12:23:36.522Z,27.34
2022-09-23T12:26:08.543Z,27.25
2022-09-23T12:28:40.685Z,27.10
2022-09-23T12:31:12.746Z,26.94
2022-09-23T12:33:40.765Z,27.16
2022-09-23T12:36:10.824Z,26.99
2022-09-23T12:38:48.348Z,27.22
2022-09-23T12:41:24.406Z,27.33
2022-09-23T12:43:54.067Z,27.23
2022-09-23T12:46:23.232Z,27.23
2022-09-23T12:49:04.231Z,27.20
2022-09-23T12:51:32.986Z,27.39
2022-09-23T12:54:21.692Z,27.53
2022-09-23T12:57:01.328Z,27.63
2022-09-23T12:59:31.408Z,27.66
2022-09-23T13:02:24.953Z,27.72
2022-09-23T13:04:59.450Z,27.78
2022-09-23T13:07:29.328Z,27.71
2022-09-23T13:10:08.752Z,27.81
2022-09-23T13:12:40.130Z,27.88
2022-09-23T13:15:21.772Z,27.62
2022-09-23T13:17:48.933Z,27.80
2022-09-23T13:20:36.789Z,27.86
2022-09-23T13:23:31.235Z,27.86
2022-09-23T13:26:02.909Z,27.85
2022-09-23T13:28:33.649Z,27.86
2022-09-23T13:31:05.403Z,27.84
2022-09-23T13:33:40.631Z,27.70
2022-09-23T13:36:14.131Z,27.79
2022-09-23T13:38:41.613Z,27.84
2022-09-23T13:41:14.936Z,27.84
2022-09-23T13:43:45.893Z,27.81
2022-09-23T13:46:19.108Z,27.70
2022-09-23T13:48:51.152Z,27.68
2022-09-23T13:51:24.112Z,27.85
2022-09-23T13:53:56.532Z,27.87
2022-09-23T13:56:28.213Z,27.89
2022-09-23T13:59:10.511Z,27.91
2022-09-23T14:01:37.767Z,27.90
2022-09-23T14:04:04.854Z,27.66
2022-09-23T14:06:36.250Z,27.79
2022-09-23T14:09:03.670Z,27.72
2022-09-23T14:11:35.226Z,27.70
2022-09-23T14:14:04.164Z,27.37
2022-09-23T14:16:31.388Z,27.48
2022-09-23T14:19:00.718Z,27.49
2022-09-23T14:21:31.403Z,27.58
2022-09-23T14:24:12.235Z,27.48
2022-09-23T14:26:43.620Z,27.46
2022-09-23T14:29:17.563Z,27.34
2022-09-23T14:31:53.253Z,27.36
2022-09-23T14:34:43.730Z,27.37
2022-09-23T14:37:27.020Z,26.98
2022-09-23T14:39:57.721Z,27.39
2022-09-23T14:42:26.644Z,27.54
2022-09-23T14:44:53.990Z,27.38
2022-09-23T14:47:21.124Z,27.41
2022-09-23T14:49:49.837Z,27.22
2022-09-23T14:52:17.357Z,27.11
2022-09-23T14:54:46.429Z,26.73
2022-09-23T14:57:29.398Z,26.79
2022-09-23T15:00:00.270Z,26.78
2022-09-23T15:02:36.128Z,26.72
2022-09-23T15:05:16.621Z,26.51
2022-09-23T15:07:47.678Z,26.61
2022-09-23T15:10:21.204Z,26.65
2022-09-23T15:12:52.480Z,26.49
2022-09-23T15:15:24.620Z,26.52
2022-09-23T15:17:51.801Z,26.51
2022-09-23T15:20:23.801Z,26.50
2022-09-23T15:22:52.700Z,26.48
2022-09-23T15:25:24.482Z,26.46
2022-09-23T15:28:01.923Z,26.48
2022-09-23T15:30:30.141Z,26.37
2022-09-23T15:32:57.262Z,26.39
2022-09-23T15:35:26.446Z,26.38
2022-09-23T15:37:57.323Z,26.38
2022-09-23T15:40:27.271Z,26.36
2022-09-23T15:42:56.925Z,26.31
2022-09-23T15:45:32.634Z,26.28
2022-09-23T15:48:04.643Z,26.25
2022-09-23T15:50:33.847Z,26.26
2022-09-23T15:53:01.124Z,26.22
2022-09-23T15:55:28.235Z,26.21
2022-09-23T15:57:55.343Z,26.20
2022-09-23T16:00:22.397Z,26.18
2022-09-23T16:02:52.810Z,26.19
2022-09-23T16:05:26.245Z,26.17
2022-09-23T16:07:53.385Z,26.16
2022-09-23T16:10:23.006Z,26.15
2022-09-23T16:12:54.198Z,26.16
2022-09-23T16:15:23.126Z,26.17
2022-09-23T16:17:52.025Z,26.13
2022-09-23T16:20:19.269Z,26.17
2022-09-23T16:22:53.549Z,26.14
2022-09-23T16:25:23.306Z,26.14
2022-09-23T16:27:50.369Z,26.11
2022-09-23T16:30:18.049Z,26.11
2022-09-23T16:32:45.067Z,26.11
2022-09-23T16:35:13.628Z,26.07
2022-09-23T16:37:40.687Z,26.07
2022-09-23T16:40:08.801Z,26.04
2022-09-23T16:42:35.972Z,26.06
2022-09-23T16:45:03.091Z,26.01
2022-09-23T16:47:30.146Z,25.96
2022-09-23T16:49:57.250Z,25.95
2022-09-23T16:52:25.969Z,25.95
2022-09-23T16:54:53.067Z,25.96
2022-09-23T16:57:20.169Z,25.92
2022-09-23T16:59:47.178Z,25.89
2022-09-23T17:02:14.389Z,25.83
2022-09-23T17:04:41.567Z,25.84
2022-09-23T17:07:08.587Z,25.83
2022-09-23T17:09:37.107Z,25.81
2022-09-23T17:12:13.836Z,25.80
2022-09-23T17:14:41.064Z,25.96
2022-09-23T17:17:08.145Z,25.92
2022-09-23T17:19:35.143Z,25.92
2022-09-23T17:22:02.179Z,25.83
2022-09-23T17:24:29.309Z,25.76
2022-09-23T17:26:57.766Z,25.66
2022-09-23T17:29:24.959Z,25.62
2022-09-23T17:31:52.186Z,25.62
2022-09-23T17:34:19.250Z,25.92
2022-09-23T17:36:46.686Z,26.11
2022-09-23T17:39:13.757Z,26.17
2022-09-23T17:41:40.884Z,26.29
2022-09-23T17:44:11.627Z,26.42
2022-09-23T17:46:38.711Z,26.38
2022-09-23T17:49:06.291Z,26.11
2022-09-23T17:51:33.455Z,25.95
2022-09-23T17:54:00.526Z,25.88
2022-09-23T17:56:27.847Z,25.84
2022-09-23T17:58:54.989Z,25.77
2022-09-23T18:01:25.729Z,25.77
2022-09-23T18:03:54.747Z,25.72
2022-09-23T18:06:29.815Z,25.68
2022-09-23T18:08:59.425Z,25.62
2022-09-23T18:11:29.229Z,25.59
2022-09-23T18:13:58.485Z,25.56
2022-09-23T18:16:28.993Z,25.55
2022-09-23T18:18:57.891Z,25.54
2022-09-23T18:21:27.770Z,25.55
2022-09-23T18:23:59.787Z,25.53
2022-09-23T18:26:34.949Z,25.50
2022-09-23T18:29:02.480Z,25.57
2022-09-23T18:31:33.525Z,25.61
2022-09-23T18:34:02.278Z,25.62
2022-09-23T18:36:29.973Z,25.57
2022-09-23T18:38:57.134Z,25.55
2022-09-23T18:41:24.169Z,25.54
2022-09-23T18:43:51.249Z,25.53
2022-09-23T18:46:21.479Z,25.51
2022-09-23T18:48:51.548Z,25.51
2022-09-23T18:51:20.549Z,25.52
2022-09-23T18:53:47.916Z,25.48
2022-09-23T18:56:16.948Z,25.40
2022-09-23T18:58:45.609Z,25.36
2022-09-23T19:01:13.542Z,25.33
2022-09-23T19:03:42.672Z,25.26
2022-09-23T19:06:18.186Z,25.22
2022-09-23T19:08:51.371Z,25.17
2022-09-23T19:11:19.653Z,25.12
2022-09-23T19:13:47.056Z,25.05
2022-09-23T19:16:16.132Z,25.01
2022-09-23T19:18:44.988Z,24.95
2022-09-23T19:21:15.572Z,24.91
2022-09-23T19:23:47.350Z,24.92
2022-09-23T19:26:16.212Z,24.92
2022-09-23T19:28:48.476Z,24.94
2022-09-23T19:31:17.833Z,24.93
2022-09-23T19:33:50.577Z,24.92
2022-09-23T19:36:23.911Z,24.89
2022-09-23T19:38:53.612Z,24.86
2022-09-23T19:41:20.670Z,24.85
2022-09-23T19:43:47.830Z,24.85
2022-09-23T19:46:15.007Z,24.84
2022-09-23T19:48:42.250Z,24.80
2022-09-23T19:51:09.369Z,24.80
2022-09-23T19:53:37.911Z,24.80
2022-09-23T19:56:05.263Z,24.85
2022-09-23T19:58:32.604Z,24.83
2022-09-23T20:01:00.300Z,24.85
2022-09-23T20:03:27.392Z,24.89
2022-09-23T20:05:55.563Z,24.92
2022-09-23T20:08:22.945Z,24.89
2022-09-23T20:10:51.804Z,24.91
2022-09-23T20:13:19.405Z,24.97
2022-09-23T20:15:48.699Z,24.99
2022-09-23T20:18:15.925Z,24.99
2022-09-23T20:20:43.004Z,24.95
2022-09-23T20:23:10.084Z,24.95
2022-09-23T20:25:37.164Z,24.88
2022-09-23T20:28:05.705Z,24.86
2022-09-23T20:30:32.805Z,24.80
2022-09-23T20:33:00.005Z,24.77
2022-09-23T20:35:27.136Z,24.73
2022-09-23T20:37:54.226Z,24.70
2022-09-23T20:40:21.361Z,24.72
2022-09-23T20:42:48.446Z,24.74
2022-09-23T20:45:16.966Z,24.71
2022-09-23T20:47:44.044Z,24.69
2022-09-23T20:50:11.408Z,24.74
2022-09-23T20:52:38.863Z,24.71
2022-09-23T20:55:07.253Z,24.67
2022-09-23T20:57:34.404Z,24.62
2022-09-23T21:00:02.102Z,24.65
2022-09-23T21:02:30.671Z,24.66
2022-09-23T21:04:57.685Z,24.66
2022-09-23T21:07:24.773Z,24.66
2022-09-23T21:09:52.077Z,24.64
2022-09-23T21:12:19.206Z,24.63
2022-09-23T21:14:46.764Z,24.64
2022-09-23T21:17:14.745Z,24.61
2022-09-23T21:19:43.235Z,24.62
2022-09-23T21:22:10.862Z,24.62
2022-09-23T21:25:25.284Z,24.61
2022-09-23T21:27:25.003Z,24.53
2022-09-23T21:29:56.225Z,24.58
2022-09-23T21:32:23.343Z,24.57
2022-09-23T21:34:51.843Z,24.57
2022-09-23T21:37:19.144Z,24.52
2022-09-23T21:39:46.223Z,24.48
2022-09-23T21:42:13.347Z,24.45
2022-09-23T21:44:40.626Z,24.31
2022-09-23T21:47:07.865Z,24.37
2022-09-23T21:49:35.105Z,24.38
2022-09-23T21:52:03.785Z,24.37
2022-09-23T21:54:30.946Z,24.37
2022-09-23T21:56:58.044Z,24.35
2022-09-23T21:59:25.145Z,24.35
2022-09-23T22:01:54.382Z,24.36
2022-09-23T22:04:21.743Z,24.35
2022-09-23T22:06:48.846Z,24.31
2022-09-23T22:09:19.669Z,24.34
2022-09-23T22:11:47.327Z,24.33
2022-09-23T22:14:16.246Z,24.30
2022-09-23T22:16:43.643Z,24.30
2022-09-23T22:19:12.369Z,24.28
2022-09-23T22:21:41.845Z,24.31
2022-09-23T22:24:11.592Z,24.14
2022-09-23T22:26:42.363Z,24.23
2022-09-23T22:29:11.643Z,24.30
2022-09-23T22:31:38.845Z,24.32
2022-09-23T22:34:06.120Z,24.32
2022-09-23T22:36:33.605Z,24.33
2022-09-23T22:39:00.703Z,24.32
2022-09-23T22:41:27.786Z,24.33
2022-09-23T22:43:56.323Z,24.39
2022-09-23T22:46:23.448Z,24.36
2022-09-23T22:48:50.803Z,24.36
2022-09-23T22:51:18.222Z,24.32
2022-09-23T22:53:45.282Z,24.33
2022-09-23T22:56:12.523Z,24.31
2022-09-23T22:58:39.663Z,24.34
2022-09-23T23:01:08.586Z,24.35
2022-09-23T23:03:35.746Z,24.36
2022-09-23T23:06:04.545Z,24.38
2022-09-23T23:08:31.904Z,24.33
2022-09-23T23:11:04.063Z,24.32
2022-09-23T23:13:32.383Z,24.08
2022-09-23T23:16:03.708Z,24.25
2022-09-23T23:18:33.463Z,24.30
2022-09-23T23:21:09.168Z,24.33
2022-09-23T23:23:37.823Z,24.30
2022-09-23T23:26:10.108Z,24.32
2022-09-23T23:28:37.226Z,24.35
2022-09-23T23:31:05.472Z,24.34
2022-09-23T23:33:34.683Z,24.30
2022-09-23T23:36:02.323Z,24.26
2022-09-23T23:38:29.761Z,24.24
2022-09-23T23:40:56.990Z,24.24
2022-09-23T23:43:24.141Z,24.31
2022-09-23T23:45:51.601Z,24.29
2022-09-23T23:48:19.523Z,24.25
2022-09-23T23:50:53.844Z,24.26
2022-09-23T23:53:21.171Z,24.25
2022-09-23T23:55:50.167Z,24.20
2022-09-23T23:58:18.149Z,24.24
